Time;durP1;ratioP1;P1;durP2;ratioP2;P2;SDS_P1;SDS_P2;PMS_P1;PMS_P2;Temp;Humidity;BMP_temperature;BMP_pressure;BME280_temperature;BME280_humidity;BME280_pressure;Samples;Min_cycle;Max_cycle;Signal;HPM_P1;HPM_P2
2022/06/08 00:01:23;;;;;;;3.90;3.53;;;23.50;99.90;;;;;;5095725;28;20459;-92
2022/06/08 00:03:56;;;;;;;5.60;3.60;;;23.50;99.90;;;;;;5078203;28;20406;-92
2022/06/08 00:06:22;;;;;;;4.47;3.70;;;23.50;99.90;;;;;;5078349;28;20196;-92
2022/06/08 00:08:48;;;;;;;3.83;3.47;;;23.50;99.90;;;;;;5096452;28;20902;-91
2022/06/08 00:11:15;;;;;;;4.70;3.53;;;23.50;99.90;;;;;;5079249;28;20429;-91
2022/06/08 00:13:42;;;;;;;4.90;3.80;;;23.50;99.90;;;;;;5097149;28;20794;-94
2022/06/08 00:16:09;;;;;;;4.07;3.63;;;23.50;99.90;;;;;;5078995;28;20525;-91
2022/06/08 00:18:35;;;;;;;4.33;3.17;;;23.50;99.90;;;;;;5097217;28;20433;-93
2022/06/08 00:21:01;;;;;;;3.97;3.50;;;23.60;99.90;;;;;;5081247;28;20519;-92
2022/06/08 00:23:27;;;;;;;4.50;3.70;;;23.60;99.90;;;;;;5099256;28;20442;-95
2022/06/08 00:25:53;;;;;;;3.70;3.13;;;23.60;99.90;;;;;;5101209;28;20458;-93
2022/06/08 00:28:18;;;;;;;3.80;3.40;;;23.60;99.90;;;;;;5114452;28;20444;-93
2022/06/08 00:30:44;;;;;;;3.90;3.60;;;23.60;99.90;;;;;;5085334;28;20435;-92
2022/06/08 00:33:10;;;;;;;3.93;3.37;;;23.60;99.90;;;;;;5077550;28;20201;-91
2022/06/08 00:35:37;;;;;;;3.90;3.60;;;23.60;99.90;;;;;;5077667;28;20509;-94
2022/06/08 00:38:02;;;;;;;3.67;3.37;;;23.60;99.90;;;;;;5077248;28;20524;-94
2022/06/08 00:40:46;;;;;;;3.47;3.17;;;23.50;99.90;;;;;;5096480;28;20500;-94
2022/06/08 00:43:12;;;;;;;4.57;3.90;;;23.50;99.90;;;;;;5075996;28;20559;-93
2022/06/08 00:45:38;;;;;;;5.13;3.70;;;23.50;99.90;;;;;;5057987;28;20445;-94
2022/06/08 00:48:06;;;;;;;4.00;3.40;;;23.50;99.90;;;;;;5057602;28;20209;-92
2022/06/08 00:50:45;;;;;;;4.07;3.20;;;23.50;99.90;;;;;;5056894;28;20856;-92
2022/06/08 00:53:13;;;;;;;3.40;3.10;;;23.50;99.90;;;;;;5056990;28;20447;-90
2022/06/08 00:55:40;;;;;;;3.90;3.50;;;23.50;99.90;;;;;;5058372;28;20792;-93
2022/06/08 00:58:12;;;;;;;3.83;3.53;;;23.50;99.90;;;;;;5059127;28;20426;-91
2022/06/08 01:00:39;;;;;;;4.57;3.80;;;23.50;99.90;;;;;;5077231;28;20478;-91
2022/06/08 01:03:07;;;;;;;4.43;4.03;;;23.40;99.90;;;;;;5060099;28;20430;-91
2022/06/08 01:05:39;;;;;;;3.83;3.53;;;23.40;99.90;;;;;;5079158;28;20428;-92
2022/06/08 01:08:30;;;;;;;4.40;3.90;;;23.30;99.90;;;;;;5065094;28;20498;-93
2022/06/08 01:10:59;;;;;;;4.40;3.40;;;23.30;99.90;;;;;;5075056;28;20517;-91
2022/06/08 01:13:28;;;;;;;4.20;3.70;;;23.20;99.90;;;;;;5057120;28;20787;-91
2022/06/08 01:15:54;;;;;;;5.53;3.37;;;23.10;99.90;;;;;;5056862;28;21012;-91
2022/06/08 01:18:20;;;;;;;4.33;3.30;;;23.00;99.90;;;;;;5057118;28;20464;-91
2022/06/08 01:20:54;;;;;;;6.10;3.67;;;23.00;99.90;;;;;;5057128;28;20544;-94
2022/06/08 01:23:23;;;;;;;4.70;4.00;;;23.00;99.90;;;;;;5057895;28;20494;-91
2022/06/08 01:26:01;;;;;;;5.10;4.00;;;22.90;99.90;;;;;;5075887;28;20501;-94
2022/06/08 01:28:44;;;;;;;8.80;4.00;;;22.80;99.90;;;;;;5059411;28;20494;-92
2022/06/08 01:31:21;;;;;;;4.43;3.93;;;22.80;99.90;;;;;;5077621;28;20782;-93
2022/06/08 01:34:03;;;;;;;4.53;4.13;;;22.70;99.90;;;;;;5060561;28;20448;-91
2022/06/08 01:36:47;;;;;;;4.00;3.60;;;22.70;99.90;;;;;;5076723;28;20401;-93
2022/06/08 01:39:39;;;;;;;4.57;4.17;;;22.60;99.90;;;;;;5058583;28;20414;-91
2022/06/08 01:42:35;;;;;;;4.83;4.10;;;22.60;99.90;;;;;;5071456;28;20559;-93
2022/06/08 01:45:28;;;;;;;4.60;3.80;;;22.50;99.90;;;;;;5093522;28;20940;-93
2022/06/08 01:48:00;;;;;;;4.60;3.77;;;22.60;99.90;;;;;;5077287;28;20439;-91
2022/06/08 01:50:28;;;;;;;4.03;3.73;;;22.50;99.90;;;;;;5094563;28;20427;-93
2022/06/08 01:53:08;;;;;;;4.03;3.63;;;22.50;99.90;;;;;;5094358;28;20432;-94
2022/06/08 01:55:54;;;;;;;5.50;4.23;;;22.50;99.90;;;;;;5094811;28;20492;-92
2022/06/08 01:58:48;;;;;;;4.20;3.80;;;22.50;99.90;;;;;;5095513;28;20424;-94
2022/06/08 02:01:27;;;;;;;3.87;3.47;;;22.40;99.90;;;;;;5095768;28;20999;-93
2022/06/08 02:04:06;;;;;;;4.80;3.70;;;22.40;99.90;;;;;;5080832;28;20412;-91
2022/06/08 02:07:07;;;;;;;5.77;3.83;;;22.40;99.90;;;;;;5081964;28;20453;-91
2022/06/08 02:09:40;;;;;;;4.37;3.97;;;22.30;99.90;;;;;;5081956;28;20536;-91
2022/06/08 02:12:08;;;;;;;4.30;3.90;;;22.30;99.90;;;;;;5083735;28;20976;-93
2022/06/08 02:14:46;;;;;;;3.97;3.63;;;22.30;99.90;;;;;;5100218;28;20922;-90
2022/06/08 02:17:41;;;;;;;4.00;3.67;;;22.30;99.90;;;;;;5082025;28;20432;-91
2022/06/08 02:20:16;;;;;;;3.83;3.53;;;22.30;99.90;;;;;;5077118;28;20553;-93
2022/06/08 02:22:50;;;;;;;3.97;3.67;;;22.30;99.90;;;;;;5082528;28;20516;-93
2022/06/08 02:25:27;;;;;;;4.50;3.43;;;22.30;99.90;;;;;;5083845;28;20472;-93
2022/06/08 02:28:01;;;;;;;3.43;3.13;;;22.30;99.90;;;;;;5108702;28;20875;-94
2022/06/08 02:30:29;;;;;;;3.87;3.40;;;22.20;99.90;;;;;;5083615;28;20528;-91
2022/06/08 02:36:02;;;;;;;4.27;3.57;;;22.30;99.90;;;;;;5099454;28;20444;-91
2022/06/08 02:38:37;;;;;;;5.10;4.27;;;22.30;99.90;;;;;;5079858;28;20475;-91
2022/06/08 02:41:06;;;;;;;4.83;4.00;;;22.30;99.90;;;;;;5076723;28;20530;-91
2022/06/08 02:43:46;;;;;;;4.73;4.23;;;22.30;99.90;;;;;;5059428;28;20421;-93
2022/06/08 02:46:24;;;;;;;5.93;3.27;;;22.20;99.90;;;;;;5077971;28;20424;-91
2022/06/08 02:48:50;;;;;;;4.57;3.83;;;22.20;99.90;;;;;;5059716;28;20441;-92
2022/06/08 02:51:16;;;;;;;3.47;3.17;;;22.30;99.90;;;;;;5077443;28;20429;-91
2022/06/08 02:54:04;;;;;;;3.63;3.30;;;22.30;99.90;;;;;;5059614;28;20184;-93
2022/06/08 02:56:30;;;;;;;4.10;3.77;;;22.30;99.90;;;;;;5061195;28;20410;-92
2022/06/08 02:58:58;;;;;;;4.90;3.47;;;22.30;99.90;;;;;;5061756;28;20429;-91
2022/06/08 03:01:41;;;;;;;4.53;3.77;;;22.30;99.90;;;;;;5079823;28;20224;-91
2022/06/08 03:04:14;;;;;;;3.70;3.40;;;22.30;99.90;;;;;;5077832;28;20484;-93
2022/06/08 03:06:51;;;;;;;4.23;3.87;;;22.30;99.90;;;;;;5059798;28;20428;-91
2022/06/08 03:09:18;;;;;;;3.80;3.40;;;22.30;99.90;;;;;;5078248;28;20417;-91
2022/06/08 03:11:49;;;;;;;4.60;3.70;;;22.30;99.90;;;;;;5062820;28;20819;-92
2022/06/08 03:14:17;;;;;;;4.03;3.63;;;22.30;99.90;;;;;;5061587;28;20422;-92
2022/06/08 03:17:04;;;;;;;4.33;3.63;;;22.30;99.90;;;;;;5079840;28;20433;-93
2022/06/08 03:19:32;;;;;;;3.73;3.43;;;22.30;99.90;;;;;;5064098;28;20437;-93
2022/06/08 03:21:59;;;;;;;4.03;3.63;;;22.20;99.90;;;;;;5064150;28;20478;-93
2022/06/08 03:24:26;;;;;;;6.23;3.73;;;22.20;99.90;;;;;;5084127;28;20418;-91
2022/06/08 03:26:59;;;;;;;9.07;4.60;;;22.20;99.90;;;;;;5103361;28;20503;-92
2022/06/08 03:29:26;;;;;;;4.33;3.73;;;22.10;99.90;;;;;;5089821;28;20784;-91
2022/06/08 03:31:52;;;;;;;4.37;3.97;;;22.10;99.90;;;;;;5097524;28;20997;-92
2022/06/08 03:34:18;;;;;;;3.60;3.27;;;22.10;99.90;;;;;;5078564;28;20521;-93
2022/06/08 03:36:44;;;;;;;5.47;4.10;;;22.10;99.90;;;;;;5096409;28;20425;-91
2022/06/08 03:39:11;;;;;;;4.13;3.73;;;22.10;99.90;;;;;;5096627;28;20995;-93
2022/06/08 03:41:37;;;;;;;4.90;3.50;;;22.10;99.90;;;;;;5078809;28;20298;-93
2022/06/08 03:44:03;;;;;;;4.00;3.60;;;22.00;99.90;;;;;;5097411;28;20432;-91
2022/06/08 03:46:34;;;;;;;7.53;3.97;;;22.00;99.90;;;;;;5079472;28;20673;-93
2022/06/08 03:49:01;;;;;;;4.13;3.70;;;22.00;99.90;;;;;;5097169;28;20404;-93
2022/06/08 03:51:27;;;;;;;4.00;3.70;;;22.00;99.90;;;;;;5080342;28;20432;-93
2022/06/08 03:53:59;;;;;;;4.63;4.13;;;22.00;99.90;;;;;;5098263;28;20397;-93
2022/06/08 03:56:29;;;;;;;4.37;3.97;;;22.00;99.90;;;;;;5081454;28;20183;-93
2022/06/08 03:58:56;;;;;;;5.70;3.43;;;22.00;99.90;;;;;;5080246;28;20397;-93
2022/06/08 04:01:22;;;;;;;5.20;3.20;;;22.00;99.90;;;;;;5097968;28;20992;-93
2022/06/08 04:03:50;;;;;;;4.27;3.87;;;22.00;99.90;;;;;;5085030;28;20404;-91
2022/06/08 04:06:17;;;;;;;4.10;3.70;;;22.10;99.90;;;;;;5100832;28;20467;-93
2022/06/08 04:08:43;;;;;;;4.63;4.10;;;22.10;99.90;;;;;;5079683;28;20448;-91
2022/06/08 04:11:09;;;;;;;6.20;4.07;;;22.10;99.90;;;;;;5078795;28;20429;-94
2022/06/08 04:13:34;;;;;;;13.77;9.90;;;22.10;99.90;;;;;;5079284;28;20197;-93
2022/06/08 04:16:02;;;;;;;4.80;4.40;;;22.10;99.90;;;;;;5079195;28;20188;-92
2022/06/08 04:18:28;;;;;;;4.60;4.10;;;22.10;99.90;;;;;;5096641;28;20663;-94
2022/06/08 04:20:57;;;;;;;5.30;4.70;;;22.10;99.90;;;;;;5080457;28;20468;-90
2022/06/08 04:23:25;;;;;;;4.23;3.80;;;22.10;99.90;;;;;;5077983;28;20486;-94
2022/06/08 04:25:51;;;;;;;4.90;4.30;;;22.10;99.90;;;;;;5096199;28;20471;-94
2022/06/08 04:28:18;;;;;;;4.50;4.10;;;22.20;99.90;;;;;;5078408;28;20436;-93
2022/06/08 04:30:44;;;;;;;8.73;3.97;;;22.20;99.90;;;;;;5096991;28;20448;-92
2022/06/08 04:33:11;;;;;;;4.50;4.07;;;22.10;99.90;;;;;;5079443;28;20508;-94
2022/06/08 04:35:37;;;;;;;4.70;4.20;;;22.10;99.90;;;;;;5079716;28;20511;-91
2022/06/08 04:38:03;;;;;;;5.23;3.53;;;22.10;99.90;;;;;;5097270;28;20467;-95
2022/06/08 04:40:29;;;;;;;4.70;3.90;;;22.10;99.90;;;;;;5079152;28;20208;-94
2022/06/08 04:42:55;;;;;;;4.37;3.97;;;22.10;99.90;;;;;;5097502;28;20437;-92
2022/06/08 04:45:21;;;;;;;4.77;3.93;;;22.10;99.90;;;;;;5078586;28;21021;-92
2022/06/08 04:47:47;;;;;;;4.50;4.10;;;22.10;99.90;;;;;;5080547;28;20424;-94
2022/06/08 04:50:13;;;;;;;4.17;3.70;;;22.10;99.90;;;;;;5081054;28;20473;-94
2022/06/08 04:52:39;;;;;;;4.60;4.20;;;22.10;99.90;;;;;;5060388;28;20204;-92
2022/06/08 04:55:08;;;;;;;4.43;3.67;;;22.10;99.90;;;;;;5073633;28;20439;-93
2022/06/08 04:57:37;;;;;;;3.67;3.37;;;22.10;99.90;;;;;;5068244;28;20937;-93
2022/06/08 05:00:09;;;;;;;4.40;3.57;;;22.10;99.90;;;;;;5075927;28;20443;-94
2022/06/08 05:02:44;;;;;;;5.23;4.77;;;22.10;99.90;;;;;;5090028;28;20457;-92
2022/06/08 05:05:19;;;;;;;4.20;3.80;;;22.20;99.90;;;;;;5094613;28;20429;-92
2022/06/08 05:07:46;;;;;;;3.63;3.33;;;22.30;99.90;;;;;;5071814;28;20447;-92
2022/06/08 05:10:12;;;;;;;4.37;3.90;;;22.30;99.90;;;;;;5096466;28;20473;-94
2022/06/08 05:12:39;;;;;;;4.23;3.80;;;22.30;99.90;;;;;;5078769;28;20490;-92
2022/06/08 05:15:08;;;;;;;4.50;4.10;;;22.30;99.90;;;;;;5078533;28;20440;-94
2022/06/08 05:17:35;;;;;;;6.57;5.07;;;22.40;99.90;;;;;;5096765;28;20432;-93
2022/06/08 05:20:02;;;;;;;6.47;4.23;;;22.40;99.90;;;;;;5081251;28;20443;-92
2022/06/08 05:22:28;;;;;;;4.60;3.90;;;22.40;99.90;;;;;;5084239;28;20498;-93
2022/06/08 05:24:54;;;;;;;5.73;3.90;;;22.40;99.90;;;;;;5083315;28;20480;-93
2022/06/08 05:27:20;;;;;;;4.53;4.10;;;22.40;99.90;;;;;;5086477;28;20410;-92
2022/06/08 05:29:46;;;;;;;3.80;3.47;;;22.40;99.90;;;;;;5076482;28;20199;-94
2022/06/08 05:32:12;;;;;;;4.13;3.80;;;22.50;99.90;;;;;;5093707;28;20431;-93
2022/06/08 05:34:37;;;;;;;4.53;4.13;;;22.60;99.90;;;;;;5095610;28;20421;-92
2022/06/08 05:37:03;;;;;;;4.00;3.70;;;22.70;99.90;;;;;;5074145;28;20471;-91
2022/06/08 05:39:29;;;;;;;3.70;3.40;;;22.80;99.90;;;;;;5098087;28;20243;-94
2022/06/08 05:41:55;;;;;;;5.80;3.70;;;22.80;99.90;;;;;;5095940;28;20564;-92
2022/06/08 05:44:21;;;;;;;6.37;4.50;;;22.90;99.90;;;;;;5097349;28;20179;-94
2022/06/08 05:46:48;;;;;;;5.43;4.00;;;23.00;99.90;;;;;;5096107;28;20413;-92
2022/06/08 05:49:15;;;;;;;3.70;3.30;;;23.10;99.90;;;;;;5079604;28;20582;-93
2022/06/08 05:51:41;;;;;;;5.10;4.20;;;23.10;99.90;;;;;;5078702;28;20547;-91
2022/06/08 05:54:07;;;;;;;4.60;4.20;;;23.20;99.90;;;;;;5081659;28;20645;-93
2022/06/08 05:56:33;;;;;;;4.33;3.93;;;23.20;99.90;;;;;;5085345;28;20443;-93
2022/06/08 05:58:58;;;;;;;7.87;3.83;;;23.30;99.90;;;;;;5083433;28;20226;-93
2022/06/08 06:01:24;;;;;;;3.50;3.20;;;23.30;99.90;;;;;;5104850;28;20457;-93
2022/06/08 06:03:53;;;;;;;4.00;3.70;;;23.40;99.90;;;;;;5099429;28;20184;-93
2022/06/08 06:06:19;;;;;;;4.70;4.20;;;23.50;99.90;;;;;;5083552;28;20380;-91
2022/06/08 06:08:48;;;;;;;4.13;3.60;;;23.50;99.90;;;;;;5107533;28;20412;-90
2022/06/08 06:11:14;;;;;;;3.97;3.50;;;23.50;99.90;;;;;;5117075;28;20422;-92
2022/06/08 06:13:41;;;;;;;3.83;3.43;;;23.50;99.90;;;;;;5084411;28;20435;-91
2022/06/08 06:16:07;;;;;;;5.97;4.47;;;23.50;99.90;;;;;;5106891;28;20511;-93
2022/06/08 06:18:33;;;;;;;3.80;3.50;;;23.50;99.90;;;;;;5081549;28;20941;-92
2022/06/08 06:20:59;;;;;;;4.10;3.70;;;23.60;99.90;;;;;;5084119;28;20511;-91
2022/06/08 06:23:26;;;;;;;4.03;3.63;;;23.60;99.90;;;;;;5076980;28;20526;-91
2022/06/08 06:25:52;;;;;;;4.00;3.60;;;23.60;99.90;;;;;;5075230;28;20508;-93
2022/06/08 06:28:18;;;;;;;4.43;3.63;;;23.70;99.90;;;;;;5078921;28;20437;-91
2022/06/08 06:30:44;;;;;;;4.70;4.00;;;23.70;99.90;;;;;;5075017;28;20452;-91
2022/06/08 06:33:14;;;;;;;4.70;3.90;;;23.70;99.90;;;;;;5095404;28;20662;-93
2022/06/08 06:35:41;;;;;;;4.90;3.83;;;23.80;99.90;;;;;;5089638;28;20797;-91
2022/06/08 06:38:08;;;;;;;4.93;4.40;;;23.80;99.90;;;;;;5077159;28;20443;-90
2022/06/08 06:40:34;;;;;;;4.27;3.87;;;23.80;99.90;;;;;;5081140;28;20462;-93
2022/06/08 06:43:01;;;;;;;4.40;4.00;;;23.90;99.90;;;;;;5078011;28;20464;-92
2022/06/08 06:45:27;;;;;;;5.10;3.33;;;24.00;99.90;;;;;;5078207;28;20433;-93
2022/06/08 06:47:52;;;;;;;3.80;3.50;;;24.00;99.90;;;;;;5079138;28;21023;-94
2022/06/08 06:50:19;;;;;;;4.23;3.83;;;24.10;99.90;;;;;;5077319;28;20434;-92
2022/06/08 06:52:45;;;;;;;3.97;3.67;;;24.20;99.90;;;;;;5089649;28;20646;-91
2022/06/08 06:55:27;;;;;;;5.20;3.77;;;24.20;99.90;;;;;;5082014;28;20862;-92
2022/06/08 06:57:54;;;;;;;4.70;4.30;;;24.20;99.90;;;;;;5092505;28;20474;-91
2022/06/08 07:00:20;;;;;;;3.97;3.67;;;24.30;99.90;;;;;;5075633;28;20442;-93
2022/06/08 07:02:46;;;;;;;4.20;3.80;;;24.30;99.90;;;;;;5079331;28;20435;-92
2022/06/08 07:05:21;;;;;;;4.17;3.80;;;24.40;99.90;;;;;;5077994;28;20423;-94
2022/06/08 07:07:47;;;;;;;5.43;4.00;;;24.40;99.90;;;;;;5094336;28;20434;-92
2022/06/08 07:10:14;;;;;;;4.13;3.63;;;24.50;99.90;;;;;;5096673;28;20656;-93
2022/06/08 07:12:39;;;;;;;4.23;3.83;;;24.60;99.90;;;;;;5092956;28;20441;-93
2022/06/08 07:15:06;;;;;;;5.23;4.20;;;24.80;99.90;;;;;;5073244;28;20414;-91
2022/06/08 07:17:33;;;;;;;5.90;3.83;;;24.90;99.90;;;;;;5072442;28;20202;-91
2022/06/08 07:19:59;;;;;;;5.40;4.13;;;25.00;99.90;;;;;;5073431;28;20836;-91
2022/06/08 07:22:25;;;;;;;4.40;3.57;;;25.10;99.90;;;;;;5072923;28;20471;-93
2022/06/08 07:24:50;;;;;;;4.40;3.47;;;25.20;99.90;;;;;;5090524;28;20183;-91
2022/06/08 07:27:17;;;;;;;3.97;3.60;;;25.20;99.90;;;;;;5075695;28;20567;-94
2022/06/08 07:29:42;;;;;;;3.53;3.23;;;25.20;99.90;;;;;;5078348;28;20283;-91
2022/06/08 07:32:08;;;;;;;5.70;4.00;;;25.20;99.90;;;;;;5084229;28;20463;-90
2022/06/08 07:34:34;;;;;;;6.03;3.67;;;25.20;99.90;;;;;;5078355;28;20533;-92
2022/06/08 07:37:00;;;;;;;4.00;3.27;;;25.20;99.90;;;;;;5079042;28;20435;-94
2022/06/08 07:39:26;;;;;;;6.83;4.03;;;25.20;99.90;;;;;;5096956;28;20187;-90
2022/06/08 07:41:52;;;;;;;3.70;3.40;;;25.10;99.90;;;;;;5077388;28;20597;-90
2022/06/08 07:44:19;;;;;;;3.63;3.33;;;25.20;99.90;;;;;;5092011;28;20447;-91
2022/06/08 07:46:46;;;;;;;3.90;3.60;;;25.10;99.90;;;;;;5058070;28;20449;-91
2022/06/08 07:51:58;;;;;;;4.27;3.57;;;25.10;99.90;;;;;;5081763;28;20454;-91
2022/06/08 07:54:27;;;;;;;3.73;3.37;;;25.10;99.90;;;;;;5076822;28;20795;-91
2022/06/08 07:56:54;;;;;;;4.60;3.30;;;25.20;99.90;;;;;;5093894;28;20195;-90
2022/06/08 07:59:22;;;;;;;5.67;4.30;;;25.20;99.90;;;;;;5093135;28;20443;-91
2022/06/08 08:01:48;;;;;;;3.80;3.47;;;25.30;99.90;;;;;;5075990;28;21075;-90
2022/06/08 08:04:14;;;;;;;4.17;3.77;;;25.40;99.90;;;;;;5074595;28;21207;-90
2022/06/08 08:06:40;;;;;;;3.30;3.00;;;25.40;99.90;;;;;;5075051;28;20455;-92
2022/06/08 08:09:13;;;;;;;4.83;3.97;;;25.50;99.90;;;;;;5071704;28;20516;-92
2022/06/08 08:11:39;;;;;;;4.43;4.00;;;25.60;99.90;;;;;;5090003;28;20429;-92
2022/06/08 08:14:05;;;;;;;4.93;4.23;;;25.70;99.90;;;;;;5077593;28;20417;-91
2022/06/08 08:16:31;;;;;;;4.83;4.40;;;25.80;99.90;;;;;;5079144;28;20464;-92
2022/06/08 08:18:58;;;;;;;9.93;7.30;;;25.80;99.90;;;;;;5078505;28;20422;-93
2022/06/08 08:21:24;;;;;;;4.67;4.27;;;25.80;99.90;;;;;;5073365;28;20209;-91
2022/06/08 08:23:50;;;;;;;4.33;3.80;;;25.80;99.90;;;;;;5087172;28;20424;-92
2022/06/08 08:26:16;;;;;;;4.37;4.00;;;25.80;99.90;;;;;;5083115;28;20689;-91
2022/06/08 08:28:42;;;;;;;4.53;4.13;;;25.70;99.90;;;;;;5072737;28;20424;-93
2022/06/08 08:31:08;;;;;;;4.33;3.77;;;25.60;99.90;;;;;;5085406;28;20432;-91
2022/06/08 08:33:34;;;;;;;8.43;4.33;;;25.60;99.90;;;;;;5063257;28;20499;-91
2022/06/08 08:35:59;;;;;;;4.47;4.07;;;25.60;99.90;;;;;;5086687;28;20263;-90
2022/06/08 08:38:25;;;;;;;5.43;4.80;;;25.60;99.90;;;;;;5059830;28;20499;-91
2022/06/08 08:40:58;;;;;;;4.90;3.50;;;25.50;99.90;;;;;;5078488;28;20511;-94
2022/06/08 08:43:28;;;;;;;4.90;4.17;;;25.50;99.90;;;;;;5078551;28;20197;-94
2022/06/08 08:46:06;;;;;;;6.10;4.03;;;25.50;99.90;;;;;;5101678;28;20435;-93
2022/06/08 08:49:01;;;;;;;4.43;4.00;;;25.50;99.90;;;;;;5072025;28;20445;-95
2022/06/08 08:51:34;;;;;;;4.93;4.53;;;25.50;99.90;;;;;;5083881;28;20471;-94
2022/06/08 08:54:03;;;;;;;5.13;4.60;;;25.60;99.90;;;;;;5075406;28;20479;-91
2022/06/08 08:56:37;;;;;;;5.40;4.70;;;25.60;99.90;;;;;;5081533;28;20435;-91
2022/06/08 08:59:12;;;;;;;4.80;4.10;;;25.60;99.90;;;;;;5064498;28;20460;-92
2022/06/08 09:01:39;;;;;;;5.00;3.83;;;25.70;99.90;;;;;;5071171;28;20472;-90
2022/06/08 09:04:25;;;;;;;6.43;4.60;;;25.70;99.90;;;;;;5072842;28;20420;-92
2022/06/08 09:06:51;;;;;;;7.40;4.50;;;25.80;99.90;;;;;;5073479;28;20523;-93
2022/06/08 09:09:21;;;;;;;12.50;4.97;;;25.80;99.90;;;;;;5069444;28;20451;-94
2022/06/08 09:11:47;;;;;;;6.03;4.30;;;25.90;99.90;;;;;;5074096;28;20425;-90
2022/06/08 09:14:26;;;;;;;5.20;4.70;;;26.00;99.90;;;;;;5090785;28;20558;-91
2022/06/08 09:17:19;;;;;;;4.97;4.50;;;26.00;99.90;;;;;;5088064;28;20195;-93
2022/06/08 09:19:50;;;;;;;4.07;3.60;;;26.10;99.90;;;;;;5073045;28;20440;-91
2022/06/08 09:22:24;;;;;;;6.00;5.40;;;26.20;99.90;;;;;;5093515;28;20519;-91
2022/06/08 09:24:54;;;;;;;4.30;3.90;;;26.30;99.90;;;;;;5073691;28;20455;-91
2022/06/08 09:27:36;;;;;;;4.80;4.37;;;26.40;99.90;;;;;;5082326;28;20441;-92
2022/06/08 09:30:24;;;;;;;4.40;3.87;;;26.50;99.90;;;;;;5078859;28;20486;-91
2022/06/08 09:33:23;;;;;;;4.30;3.90;;;26.50;99.90;;;;;;5081340;28;20447;-93
2022/06/08 09:35:53;;;;;;;4.10;3.80;;;26.60;99.90;;;;;;5069267;28;20445;-94
2022/06/08 09:38:22;;;;;;;6.20;3.90;;;26.70;99.90;;;;;;5074955;28;20433;-93
2022/06/08 09:41:14;;;;;;;4.40;3.93;;;26.70;99.90;;;;;;5074631;28;20530;-90
2022/06/08 09:44:05;;;;;;;4.50;4.10;;;26.80;99.90;;;;;;5074604;28;20421;-92
2022/06/08 09:52:49;;;;;;;4.87;4.17;;;26.90;99.90;;;;;;5079579;28;20455;-93
2022/06/08 09:55:34;;;;;;;6.80;4.80;;;27.00;99.90;;;;;;5070799;28;20520;-94
2022/06/08 09:58:05;;;;;;;6.63;5.43;;;27.10;99.90;;;;;;5075417;28;20842;-92
2022/06/08 10:00:50;;;;;;;6.33;4.73;;;27.20;99.90;;;;;;5076521;28;20479;-93
2022/06/08 10:03:22;;;;;;;5.33;4.43;;;27.20;99.90;;;;;;5066555;28;20992;-91
2022/06/08 10:05:57;;;;;;;7.10;5.53;;;27.20;99.90;;;;;;5092281;28;20416;-94
2022/06/08 10:08:38;;;;;;;6.67;5.70;;;27.20;99.90;;;;;;5079030;28;20440;-94
2022/06/08 10:11:34;;;;;;;7.47;6.37;;;27.20;99.90;;;;;;5072810;28;20948;-92
2022/06/08 10:14:25;;;;;;;7.03;6.03;;;27.00;99.90;;;;;;5072563;28;20428;-92
2022/06/08 10:16:56;;;;;;;10.07;7.00;;;27.00;99.90;;;;;;5087047;28;20457;-91
2022/06/08 10:19:57;;;;;;;7.50;6.80;;;27.10;99.90;;;;;;5092647;28;20432;-94
2022/06/08 10:22:28;;;;;;;7.87;7.13;;;27.10;99.90;;;;;;5038622;28;20472;-93
2022/06/08 10:25:26;;;;;;;10.60;8.13;;;27.10;99.90;;;;;;5095023;28;20410;-94
2022/06/08 10:28:00;;;;;;;9.05;7.90;;;27.20;99.90;;;;;;5079179;28;20406;-93
2022/06/08 10:30:41;;;;;;;7.47;6.77;;;27.20;99.90;;;;;;5080610;28;20186;-94
2022/06/08 10:33:14;;;;;;;6.77;6.07;;;27.40;99.90;;;;;;5078684;28;21022;-94
2022/06/08 10:35:48;;;;;;;6.57;5.87;;;27.40;99.90;;;;;;5096293;28;20986;-93
2022/06/08 10:38:22;;;;;;;7.53;6.30;;;27.50;99.90;;;;;;5067823;28;20455;-93
2022/06/08 10:41:00;;;;;;;6.40;5.80;;;27.50;99.90;;;;;;5096680;28;20897;-95
2022/06/08 10:43:34;;;;;;;7.03;6.07;;;27.70;99.90;;;;;;5075848;28;20722;-94
2022/06/08 10:46:43;;;;;;;7.93;6.40;;;27.70;99.90;;;;;;5091317;28;20436;-94
2022/06/08 10:49:30;;;;;;;6.43;5.80;;;27.70;99.90;;;;;;5082267;28;20405;-94
2022/06/08 10:52:14;;;;;;;8.70;7.37;;;27.70;99.90;;;;;;5091845;28;21097;-92
2022/06/08 10:54:55;;;;;;;6.70;6.00;;;27.80;99.90;;;;;;5088205;28;20586;-92
2022/06/08 10:57:36;;;;;;;8.70;6.20;;;27.90;99.90;;;;;;5083963;28;21015;-92
2022/06/08 11:00:26;;;;;;;7.57;6.77;;;28.00;99.90;;;;;;5084626;28;20445;-94
2022/06/08 11:02:54;;;;;;;8.83;7.37;;;28.00;99.90;;;;;;5072149;28;20547;-92
2022/06/08 11:05:34;;;;;;;9.13;8.13;;;28.00;99.90;;;;;;5075459;28;20435;-92
2022/06/08 11:08:06;;;;;;;10.30;6.50;;;28.00;99.90;;;;;;5075565;28;20969;-94
2022/06/08 11:10:44;;;;;;;8.63;7.83;;;28.00;99.90;;;;;;5074688;28;20790;-94
2022/06/08 11:13:23;;;;;;;9.13;7.57;;;28.10;99.90;;;;;;5075812;28;20534;-94
2022/06/08 11:15:51;;;;;;;8.63;7.57;;;28.20;99.90;;;;;;5102230;28;20426;-95
2022/06/08 11:18:38;;;;;;;9.20;8.30;;;28.30;99.90;;;;;;5080428;28;20428;-94
2022/06/08 11:21:29;;;;;;;11.90;9.30;;;28.30;99.90;;;;;;5070689;28;20481;-94
2022/06/08 11:24:02;;;;;;;9.40;8.37;;;28.30;99.90;;;;;;5075385;28;20964;-93
2022/06/08 11:26:37;;;;;;;8.80;7.90;;;28.40;99.90;;;;;;5090001;28;20530;-94
2022/06/08 11:29:18;;;;;;;9.70;6.90;;;28.40;99.90;;;;;;5079161;28;20416;-94
2022/06/08 11:31:43;;;;;;;11.23;7.80;;;28.40;99.90;;;;;;5077474;28;20481;-94
2022/06/08 11:34:21;;;;;;;9.07;7.90;;;28.50;99.90;;;;;;5091555;28;20903;-94
2022/06/08 11:37:26;;;;;;;12.63;8.77;;;28.50;99.90;;;;;;5090842;28;20243;-92
2022/06/08 11:40:32;;;;;;;10.97;9.87;;;28.60;99.80;;;;;;5071041;28;20527;-92
2022/06/08 11:43:13;;;;;;;8.00;7.20;;;28.50;99.10;;;;;;5049093;28;20482;-93
2022/06/08 11:45:44;;;;;;;6.40;4.57;;;28.40;99.80;;;;;;5033983;28;20424;-92
2022/06/08 11:48:44;;;;;;;6.20;4.33;;;28.30;99.90;;;;;;5061558;28;20474;-92
2022/06/08 11:51:10;;;;;;;4.90;4.40;;;28.10;99.90;;;;;;5080725;28;20417;-91
2022/06/08 11:53:40;;;;;;;4.30;3.90;;;27.90;99.90;;;;;;5077287;28;20436;-93
2022/06/08 11:56:32;;;;;;;3.87;3.50;;;27.90;99.90;;;;;;5071706;28;20853;-91
2022/06/08 11:59:01;;;;;;;3.95;3.00;;;27.70;99.90;;;;;;5091172;28;20410;-94
2022/06/08 12:01:36;;;;;;;3.80;3.10;;;27.60;99.80;;;;;;5072002;28;20438;-92
2022/06/08 12:04:06;;;;;;;3.20;2.90;;;27.60;99.50;;;;;;5087490;28;20819;-92
2022/06/08 12:06:38;;;;;;;3.37;2.80;;;27.60;99.70;;;;;;5091814;28;20553;-94
2022/06/08 12:09:30;;;;;;;2.77;2.27;;;27.50;99.30;;;;;;5091954;28;20422;-92
2022/06/08 12:12:10;;;;;;;1.63;1.53;;;27.50;98.60;;;;;;5074446;28;20464;-93
2022/06/08 12:14:38;;;;;;;2.50;2.23;;;27.40;98.30;;;;;;5091210;28;20412;-92
2022/06/08 12:17:13;;;;;;;3.40;2.40;;;27.40;98.00;;;;;;5085444;28;20861;-92
2022/06/08 12:19:46;;;;;;;3.60;3.13;;;27.40;98.50;;;;;;5083985;28;20428;-94
2022/06/08 12:22:18;;;;;;;3.37;3.07;;;27.30;98.50;;;;;;5066927;28;21005;-93
2022/06/08 12:25:03;;;;;;;5.00;3.87;;;27.30;99.30;;;;;;5091017;28;20490;-94
2022/06/08 12:28:03;;;;;;;4.30;3.90;;;27.40;99.20;;;;;;5090921;28;20470;-91
2022/06/08 12:30:36;;;;;;;4.33;3.73;;;27.40;98.50;;;;;;5071485;28;20954;-92
2022/06/08 12:33:13;;;;;;;3.93;3.53;;;27.50;98.40;;;;;;5075908;28;20551;-94
2022/06/08 12:35:50;;;;;;;4.57;4.17;;;27.50;98.70;;;;;;5092790;28;20425;-94
2022/06/08 12:38:20;;;;;;;3.70;3.40;;;27.40;98.60;;;;;;5074243;28;20918;-93
2022/06/08 12:41:11;;;;;;;3.40;3.00;;;27.50;98.80;;;;;;5084034;28;20464;-94
2022/06/08 12:43:48;;;;;;;5.20;3.93;;;27.40;98.30;;;;;;5094028;28;20520;-92
2022/06/08 12:46:21;;;;;;;3.63;3.13;;;27.40;98.00;;;;;;5095162;28;20581;-94
2022/06/08 12:48:52;;;;;;;6.10;4.50;;;27.40;98.20;;;;;;5095625;28;20505;-94
2022/06/08 12:51:22;;;;;;;6.60;3.70;;;27.50;97.20;;;;;;5091002;28;20444;-92
2022/06/08 12:53:48;;;;;;;4.13;3.80;;;27.50;97.10;;;;;;5066921;28;20434;-92
2022/06/08 12:56:17;;;;;;;5.23;3.83;;;27.50;97.30;;;;;;5076234;28;20433;-91
2022/06/08 12:58:42;;;;;;;4.70;4.23;;;27.50;97.10;;;;;;5075795;28;20490;-92
2022/06/08 13:01:11;;;;;;;4.00;3.57;;;27.50;97.40;;;;;;5078001;28;20468;-92
2022/06/08 13:03:38;;;;;;;4.40;3.37;;;27.40;97.50;;;;;;5094618;28;20177;-92
2022/06/08 13:06:05;;;;;;;5.43;3.77;;;27.50;97.30;;;;;;5092480;28;20534;-94
2022/06/08 13:08:31;;;;;;;4.13;3.17;;;27.50;97.50;;;;;;5075067;28;20437;-91
2022/06/08 13:11:00;;;;;;;4.93;4.43;;;27.60;97.20;;;;;;5075847;28;20528;-91
2022/06/08 13:13:31;;;;;;;5.20;4.13;;;27.60;97.10;;;;;;5076713;28;20436;-91
2022/06/08 13:16:00;;;;;;;4.83;4.37;;;27.60;96.90;;;;;;5076005;28;20441;-93
2022/06/08 13:18:28;;;;;;;3.47;2.77;;;27.60;96.90;;;;;;5091293;28;20460;-93
2022/06/08 13:20:56;;;;;;;3.03;2.73;;;27.70;96.50;;;;;;5098528;28;21056;-94
2022/06/08 13:23:23;;;;;;;3.93;3.50;;;27.60;96.30;;;;;;5071845;28;21124;-92